createdAt,value
2023-04-02T00:02:32.589Z,37.47
2023-04-02T00:05:34.671Z,37.74
2023-04-02T00:08:03.597Z,37.36
2023-04-02T00:10:33.235Z,37.30
2023-04-02T00:13:05.655Z,37.35
2023-04-02T00:15:33.926Z,37.72
2023-04-02T00:18:03.627Z,37.39
2023-04-02T00:20:32.101Z,37.44
2023-04-02T00:23:00.024Z,37.77
2023-04-02T00:25:28.710Z,37.55
2023-04-02T00:27:56.839Z,37.58
2023-04-02T00:30:24.701Z,37.55
2023-04-02T00:32:52.748Z,37.76
2023-04-02T00:35:24.569Z,37.70
2023-04-02T00:37:52.486Z,37.44
2023-04-02T00:40:22.212Z,37.68
2023-04-02T00:42:51.683Z,37.28
2023-04-02T00:45:24.130Z,37.80
2023-04-02T00:47:52.350Z,37.57
2023-04-02T00:50:25.751Z,37.76
2023-04-02T00:52:53.746Z,37.49
2023-04-02T00:55:23.296Z,37.63
2023-04-02T00:57:51.457Z,37.60
2023-04-02T01:00:22.048Z,37.25
2023-04-02T01:03:28.883Z,37.59
2023-04-02T01:06:02.732Z,37.62
2023-04-02T01:08:36.867Z,37.76
2023-04-02T01:11:05.829Z,37.46
2023-04-02T01:13:36.639Z,37.32
2023-04-02T01:16:07.627Z,37.68
2023-04-02T01:18:42.452Z,37.66
2023-04-02T01:21:32.882Z,37.94
2023-04-02T01:24:02.738Z,37.75
2023-04-02T01:26:38.170Z,37.61
2023-04-02T01:29:10.191Z,37.74
2023-04-02T01:31:38.420Z,37.51
2023-04-02T01:34:07.815Z,37.54
2023-04-02T01:36:40.521Z,37.61
2023-04-02T01:39:15.821Z,37.36
2023-04-02T01:41:46.342Z,37.50
2023-04-02T01:44:16.563Z,37.64
2023-04-02T01:46:44.829Z,37.56
2023-04-02T01:49:14.074Z,37.29
2023-04-02T01:51:43.873Z,37.56
2023-04-02T01:54:11.736Z,37.49
2023-04-02T01:56:39.666Z,37.48
2023-04-02T01:59:07.952Z,37.37
2023-04-02T02:01:37.893Z,37.31
2023-04-02T02:04:06.017Z,37.28
2023-04-02T02:06:33.923Z,37.33
2023-04-02T02:09:03.689Z,37.40
2023-04-02T02:11:33.044Z,37.25
2023-04-02T02:14:01.704Z,37.32
2023-04-02T02:16:31.927Z,37.56
2023-04-02T02:19:02.703Z,37.61
2023-04-02T02:21:35.418Z,37.54
2023-04-02T02:24:04.852Z,37.52
2023-04-02T02:26:34.028Z,37.42
2023-04-02T02:29:01.938Z,37.40
2023-04-02T02:31:33.165Z,37.63
2023-04-02T02:34:04.124Z,37.27
2023-04-02T02:36:33.977Z,37.55
2023-04-02T02:39:03.325Z,37.28
2023-04-02T02:41:33.084Z,37.49
2023-04-02T02:44:03.745Z,37.68
2023-04-02T02:46:31.742Z,37.40
2023-04-02T02:48:59.726Z,37.37
2023-04-02T02:51:30.939Z,37.55
2023-04-02T02:54:01.489Z,37.32
2023-04-02T02:56:29.362Z,37.52
2023-04-02T02:58:57.280Z,37.04
2023-04-02T03:01:25.547Z,37.34
2023-04-02T03:03:54.385Z,37.31
2023-04-02T03:06:22.557Z,37.49
2023-04-02T03:08:54.533Z,37.26
2023-04-02T03:11:26.447Z,37.33
2023-04-02T03:13:55.253Z,37.22
2023-04-02T03:16:24.686Z,37.51
2023-04-02T03:18:54.515Z,37.52
2023-04-02T03:21:26.967Z,37.29
2023-04-02T03:23:57.378Z,37.38
2023-04-02T03:26:28.051Z,37.07
2023-04-02T03:28:58.148Z,37.32
2023-04-02T03:31:28.352Z,37.03
2023-04-02T03:33:57.978Z,37.03
2023-04-02T03:36:28.546Z,37.36
2023-04-02T03:39:02.971Z,37.18
2023-04-02T03:41:33.563Z,37.43
2023-04-02T03:44:04.345Z,37.21
2023-04-02T03:46:33.604Z,37.15
2023-04-02T03:49:02.287Z,36.88
2023-04-02T03:51:32.348Z,37.12
2023-04-02T03:54:01.707Z,36.93
2023-04-02T03:56:31.582Z,36.94
2023-04-02T03:59:06.470Z,36.81
2023-04-02T04:01:36.083Z,37.18
2023-04-02T04:04:06.066Z,37.14
2023-04-02T04:06:34.449Z,37.17
2023-04-02T04:09:09.226Z,37.32
2023-04-02T04:11:38.932Z,37.20
2023-04-02T04:14:08.448Z,37.26
2023-04-02T04:16:42.980Z,37.00
2023-04-02T04:19:14.219Z,37.44
2023-04-02T04:21:45.204Z,37.16
2023-04-02T04:24:20.236Z,37.30
2023-04-02T04:26:49.649Z,36.92
2023-04-02T04:29:25.862Z,36.85
2023-04-02T04:31:55.835Z,37.02
2023-04-02T04:34:26.526Z,37.17
2023-04-02T04:36:56.596Z,36.79
2023-04-02T04:39:30.882Z,37.21
2023-04-02T04:41:59.965Z,37.01
2023-04-02T04:44:34.112Z,37.05
2023-04-02T04:47:03.869Z,36.94
2023-04-02T04:49:33.623Z,37.12
2023-04-02T04:52:06.797Z,37.24
2023-04-02T04:54:38.229Z,37.01
2023-04-02T04:57:06.187Z,37.37
2023-04-02T04:59:34.995Z,37.03
2023-04-02T05:02:04.513Z,37.17
2023-04-02T05:04:32.985Z,37.14
2023-04-02T05:07:03.873Z,36.94
2023-04-02T05:09:34.282Z,37.13
2023-04-02T05:12:08.105Z,37.13
2023-04-02T05:14:37.922Z,36.96
2023-04-02T05:17:06.684Z,36.92
2023-04-02T05:19:36.776Z,36.99
2023-04-02T05:22:07.345Z,37.08
2023-04-02T05:24:43.395Z,37.07
2023-04-02T05:27:21.149Z,36.70
2023-04-02T05:29:51.728Z,36.66
2023-04-02T05:32:21.601Z,36.77
2023-04-02T05:34:51.611Z,37.05
2023-04-02T05:37:20.311Z,36.92
2023-04-02T05:39:49.402Z,36.70
2023-04-02T05:42:20.336Z,36.99
2023-04-02T05:44:56.678Z,36.84
2023-04-02T05:47:25.701Z,36.92
2023-04-02T05:49:56.360Z,36.86
2023-04-02T05:52:26.285Z,36.55
2023-04-02T05:54:56.261Z,36.94
2023-04-02T05:57:39.383Z,36.84
2023-04-02T06:00:17.462Z,36.69
2023-04-02T06:02:51.412Z,37.02
2023-04-02T06:05:20.884Z,36.73
2023-04-02T06:07:49.735Z,36.99
2023-04-02T06:10:20.700Z,36.77
2023-04-02T06:12:52.495Z,36.57
2023-04-02T06:15:21.481Z,36.67
2023-04-02T06:17:49.924Z,37.04
2023-04-02T06:20:18.543Z,36.88
2023-04-02T06:22:47.001Z,36.52
2023-04-02T06:25:17.132Z,36.57
2023-04-02T06:27:45.153Z,36.85
2023-04-02T06:30:18.567Z,36.92
2023-04-02T06:32:46.862Z,36.61
2023-04-02T06:35:16.357Z,36.75
2023-04-02T06:37:44.564Z,36.76
2023-04-02T06:40:27.165Z,36.70
2023-04-02T06:42:59.622Z,36.91
2023-04-02T06:45:30.679Z,36.73
2023-04-02T06:47:58.698Z,36.60
2023-04-02T06:50:27.991Z,36.58
2023-04-02T06:52:57.208Z,36.79
2023-04-02T06:55:31.164Z,36.34
2023-04-02T06:57:59.106Z,36.81
2023-04-02T07:00:31.603Z,36.42
2023-04-02T07:02:59.564Z,36.53
2023-04-02T07:05:27.533Z,36.45
2023-04-02T07:07:55.791Z,36.53
2023-04-02T07:10:23.725Z,36.46
2023-04-02T07:12:51.920Z,36.75
2023-04-02T07:15:20.198Z,36.60
2023-04-02T07:17:49.876Z,36.62
2023-04-02T07:20:26.198Z,36.71
2023-04-02T07:22:54.155Z,36.50
2023-04-02T07:25:22.264Z,36.38
2023-04-02T07:27:50.660Z,36.58
2023-04-02T07:30:18.741Z,36.66
2023-04-02T07:32:47.100Z,36.73
2023-04-02T07:35:17.607Z,36.39
2023-04-02T07:37:45.687Z,36.62
2023-04-02T07:40:17.569Z,36.23
2023-04-02T07:42:47.875Z,36.46
2023-04-02T07:45:16.136Z,36.44
2023-04-02T07:47:44.299Z,36.29
2023-04-02T07:50:12.223Z,36.62
2023-04-02T07:52:42.574Z,36.63
2023-04-02T07:55:12.543Z,36.64
2023-04-02T07:57:43.101Z,36.30
2023-04-02T08:00:13.593Z,36.58
2023-04-02T08:02:42.518Z,36.42
2023-04-02T08:05:11.430Z,36.24
2023-04-02T08:07:40.133Z,36.35
2023-04-02T08:10:10.997Z,36.51
2023-04-02T08:12:39.254Z,36.03
2023-04-02T08:15:10.437Z,36.15
2023-04-02T08:17:38.428Z,36.39
2023-04-02T08:20:08.113Z,36.47
2023-04-02T08:22:36.420Z,36.28
2023-04-02T08:25:04.435Z,36.33
2023-04-02T08:27:33.705Z,36.05
2023-04-02T08:30:01.638Z,36.26
2023-04-02T08:32:29.982Z,36.07
2023-04-02T08:34:57.952Z,36.30
2023-04-02T08:37:25.904Z,36.22
2023-04-02T08:39:53.787Z,36.53
2023-04-02T08:42:24.338Z,36.24
2023-04-02T08:45:08.077Z,36.15
2023-04-02T08:47:42.048Z,36.06
2023-04-02T08:50:15.416Z,36.47
2023-04-02T08:52:43.321Z,36.54
2023-04-02T08:55:18.969Z,35.91
2023-04-02T08:57:48.457Z,36.26
2023-04-02T09:00:26.932Z,36.15
2023-04-02T09:02:57.068Z,36.25
2023-04-02T09:05:27.868Z,36.04
2023-04-02T09:07:56.517Z,36.22
2023-04-02T09:10:24.477Z,36.02
2023-04-02T09:12:53.111Z,35.99
2023-04-02T09:15:29.372Z,36.00
2023-04-02T09:17:59.643Z,36.30
2023-04-02T09:20:29.281Z,36.35
2023-04-02T09:22:57.207Z,36.14
2023-04-02T09:25:27.164Z,36.11
2023-04-02T09:27:56.176Z,36.26
2023-04-02T09:30:31.517Z,35.97
2023-04-02T09:33:02.057Z,36.25
2023-04-02T09:35:30.333Z,35.99
2023-04-02T09:38:20.660Z,35.93
2023-04-02T09:40:50.573Z,36.14
2023-04-02T09:43:19.190Z,36.13
2023-04-02T09:45:57.319Z,36.14
2023-04-02T09:48:27.093Z,35.95
2023-04-02T09:51:08.453Z,36.19
2023-04-02T09:53:37.040Z,36.19
2023-04-02T09:56:13.007Z,36.04
2023-04-02T09:58:41.815Z,36.07
2023-04-02T10:01:31.144Z,36.19
2023-04-02T10:04:00.158Z,35.94
2023-04-02T10:06:29.202Z,36.09
2023-04-02T10:08:57.106Z,36.05
2023-04-02T10:11:36.399Z,36.28
2023-04-02T10:14:10.983Z,35.84
2023-04-02T10:16:41.607Z,36.06
2023-04-02T10:19:14.850Z,36.03
2023-04-02T10:21:43.138Z,35.99
2023-04-02T10:24:12.117Z,36.08
2023-04-02T10:26:46.817Z,36.07
2023-04-02T10:29:23.083Z,35.65
2023-04-02T10:31:55.964Z,35.79
2023-04-02T10:34:25.875Z,36.02
2023-04-02T10:36:55.379Z,35.90
2023-04-02T10:39:24.029Z,36.13
2023-04-02T10:41:54.452Z,35.77
2023-04-02T10:44:32.622Z,36.21
2023-04-02T10:47:10.051Z,35.94
2023-04-02T10:49:42.437Z,35.82
2023-04-02T10:52:13.570Z,36.02
2023-04-02T10:54:44.607Z,35.97
2023-04-02T10:57:19.795Z,35.81
2023-04-02T10:59:48.829Z,35.63
2023-04-02T11:02:27.342Z,35.87
2023-04-02T11:04:57.337Z,36.09
2023-04-02T11:07:27.425Z,35.86
2023-04-02T11:09:57.139Z,35.75
2023-04-02T11:12:28.456Z,35.56
2023-04-02T11:14:56.475Z,35.79
2023-04-02T11:17:25.900Z,35.88
2023-04-02T11:19:54.111Z,35.94
2023-04-02T11:22:22.448Z,35.80
2023-04-02T11:24:51.153Z,35.82
2023-04-02T11:27:24.307Z,36.01
2023-04-02T11:29:53.386Z,36.04
2023-04-02T11:32:36.856Z,35.67
2023-04-02T11:35:38.599Z,35.66
2023-04-02T11:38:40.968Z,36.06
2023-04-02T11:41:08.885Z,35.83
2023-04-02T11:43:52.296Z,35.96
2023-04-02T11:46:46.836Z,35.98
2023-04-02T11:49:41.156Z,36.10
2023-04-02T11:52:26.985Z,36.00
2023-04-02T11:55:02.364Z,36.03
2023-04-02T11:57:43.589Z,35.89
2023-04-02T12:00:50.973Z,35.84
2023-04-02T12:03:32.359Z,36.13
2023-04-02T12:06:04.336Z,35.59
2023-04-02T12:08:50.636Z,36.05
2023-04-02T12:11:32.272Z,35.74
2023-04-02T12:14:00.488Z,35.85
2023-04-02T12:16:31.377Z,35.97
2023-04-02T12:18:59.331Z,35.59
2023-04-02T12:21:31.127Z,35.56
2023-04-02T12:23:59.733Z,35.74
2023-04-02T12:26:37.429Z,35.61
2023-04-02T12:29:22.147Z,35.52
2023-04-02T12:31:50.466Z,35.62
2023-04-02T12:34:19.178Z,35.54
2023-04-02T12:36:55.714Z,35.43
2023-04-02T12:39:25.832Z,35.71
2023-04-02T12:41:55.873Z,35.87
2023-04-02T12:44:24.823Z,35.68
2023-04-02T12:46:53.395Z,35.85
2023-04-02T12:49:35.217Z,35.62
2023-04-02T12:52:05.359Z,35.54
2023-04-02T12:54:36.692Z,35.75
2023-04-02T12:57:23.320Z,35.46
2023-04-02T12:59:51.281Z,35.57
2023-04-02T13:02:20.197Z,35.82
2023-04-02T13:04:49.130Z,35.79
2023-04-02T13:07:19.985Z,35.75
2023-04-02T13:09:48.406Z,35.56
2023-04-02T13:12:26.807Z,35.76
2023-04-02T13:14:56.086Z,35.81
2023-04-02T13:17:43.541Z,35.63
2023-04-02T13:20:31.086Z,35.62
2023-04-02T13:23:00.819Z,35.45
2023-04-02T13:25:30.494Z,35.40
2023-04-02T13:27:58.525Z,35.67
2023-04-02T13:30:27.395Z,35.31
2023-04-02T13:32:55.907Z,35.58
2023-04-02T13:35:24.464Z,35.46
2023-04-02T13:37:52.398Z,35.40
2023-04-02T13:40:21.755Z,35.34
2023-04-02T13:42:49.984Z,35.59
2023-04-02T13:45:25.702Z,35.51
2023-04-02T13:47:53.731Z,35.51
2023-04-02T13:50:22.520Z,35.56
2023-04-02T13:52:51.429Z,35.23
2023-04-02T13:55:19.448Z,35.54
2023-04-02T13:57:50.163Z,35.69
2023-04-02T14:00:19.820Z,35.25
2023-04-02T14:02:49.991Z,35.50
2023-04-02T14:05:27.862Z,35.43
2023-04-02T14:08:04.417Z,35.28
2023-04-02T14:10:48.497Z,35.46
2023-04-02T14:13:44.882Z,35.71
2023-04-02T14:16:19.716Z,35.56
2023-04-02T14:19:00.691Z,35.14
2023-04-02T14:21:33.024Z,35.23
2023-04-02T14:24:08.807Z,35.40
2023-04-02T14:26:40.576Z,35.29
2023-04-02T14:29:13.318Z,35.47
2023-04-02T14:31:43.267Z,35.28
2023-04-02T14:34:16.198Z,35.49
2023-04-02T14:36:49.863Z,35.49
2023-04-02T14:39:20.618Z,35.78
2023-04-02T14:41:50.968Z,35.78
2023-04-02T14:44:20.562Z,35.46
2023-04-02T14:46:48.641Z,35.40
2023-04-02T14:49:23.691Z,35.25
2023-04-02T14:51:52.860Z,35.23
2023-04-02T14:54:23.855Z,35.64
2023-04-02T14:56:53.401Z,35.46
2023-04-02T14:59:27.332Z,35.19
2023-04-02T15:01:56.649Z,35.42
2023-04-02T15:04:27.819Z,35.38
2023-04-02T15:06:58.793Z,35.32
2023-04-02T15:09:28.510Z,35.30
2023-04-02T15:11:58.055Z,35.21
2023-04-02T15:14:29.648Z,35.56
2023-04-02T15:16:57.533Z,35.15
2023-04-02T15:19:25.458Z,35.18
2023-04-02T15:22:08.700Z,35.32
2023-04-02T15:24:43.198Z,35.36
2023-04-02T15:27:25.230Z,35.44
2023-04-02T15:29:57.862Z,35.13
2023-04-02T15:32:30.735Z,35.01
2023-04-02T15:35:00.778Z,35.30
2023-04-02T15:37:31.052Z,35.13
2023-04-02T15:40:09.053Z,35.22
2023-04-02T15:42:38.683Z,35.34
2023-04-02T15:45:19.504Z,35.08
2023-04-02T15:47:57.120Z,35.30
2023-04-02T15:50:40.982Z,34.97
2023-04-02T15:53:15.258Z,35.39
2023-04-02T15:55:45.426Z,35.33
2023-04-02T15:58:35.592Z,35.44
2023-04-02T16:01:08.420Z,35.40
2023-04-02T16:03:50.795Z,35.17
2023-04-02T16:06:27.154Z,35.38
2023-04-02T16:09:03.675Z,35.39
2023-04-02T16:11:31.609Z,34.99
2023-04-02T16:14:03.480Z,35.21
2023-04-02T16:16:33.731Z,35.40
2023-04-02T16:19:04.570Z,34.98
2023-04-02T16:21:33.917Z,35.21
2023-04-02T16:24:01.996Z,35.27
2023-04-02T16:26:36.438Z,35.27
2023-04-02T16:29:17.079Z,35.18
2023-04-02T16:31:49.185Z,35.38
2023-04-02T16:34:21.378Z,34.90
2023-04-02T16:36:52.666Z,34.90
2023-04-02T16:39:27.045Z,35.25
2023-04-02T16:42:00.799Z,35.33
2023-04-02T16:44:33.367Z,35.03
2023-04-02T16:47:10.432Z,35.08
2023-04-02T16:49:39.932Z,35.45
2023-04-02T16:52:18.403Z,35.15
2023-04-02T16:54:48.568Z,35.22
2023-04-02T16:57:28.718Z,35.06
2023-04-02T17:00:02.399Z,35.30
2023-04-02T17:02:39.836Z,35.19
2023-04-02T17:05:13.771Z,34.98
2023-04-02T17:07:42.502Z,34.89
2023-04-02T17:10:24.763Z,34.90
2023-04-02T17:12:55.776Z,35.08
2023-04-02T17:15:28.331Z,35.04
2023-04-02T17:17:59.542Z,35.07
2023-04-02T17:20:27.743Z,35.12
2023-04-02T17:22:56.054Z,35.08
2023-04-02T17:25:26.063Z,35.02
2023-04-02T17:27:55.586Z,34.85
2023-04-02T17:30:27.776Z,34.79
2023-04-02T17:32:56.039Z,35.20
2023-04-02T17:35:32.411Z,34.97
2023-04-02T17:38:03.778Z,35.04
2023-04-02T17:40:33.360Z,34.86
2023-04-02T17:43:04.550Z,34.88
2023-04-02T17:45:36.114Z,34.82
2023-04-02T17:48:05.445Z,35.08
2023-04-02T17:50:46.218Z,35.04
2023-04-02T17:53:21.751Z,34.91
2023-04-02T17:55:54.190Z,34.97
2023-04-02T17:58:31.521Z,34.96
2023-04-02T18:01:02.587Z,34.98
2023-04-02T18:03:40.323Z,34.96
2023-04-02T18:06:12.159Z,35.01
2023-04-02T18:08:43.579Z,35.30
2023-04-02T18:11:13.497Z,35.03
2023-04-02T18:13:42.955Z,35.04
2023-04-02T18:16:35.381Z,35.21
2023-04-02T18:19:12.464Z,35.23
2023-04-02T18:21:46.378Z,35.28
2023-04-02T18:24:36.889Z,34.82
2023-04-02T18:27:13.484Z,35.23
2023-04-02T18:29:43.607Z,35.22
2023-04-02T18:32:34.723Z,35.27
2023-04-02T18:35:07.645Z,35.24
2023-04-02T18:37:39.863Z,35.21
2023-04-02T18:40:18.706Z,35.18
2023-04-02T18:42:50.618Z,35.11
2023-04-02T18:45:20.410Z,35.19
2023-04-02T18:47:50.379Z,35.16
2023-04-02T18:50:19.411Z,35.20
2023-04-02T18:52:48.937Z,35.27
2023-04-02T18:55:18.604Z,35.25
2023-04-02T18:57:46.656Z,35.13
2023-04-02T19:00:25.840Z,34.90
2023-04-02T19:02:55.559Z,35.14
2023-04-02T19:05:24.481Z,35.05
2023-04-02T19:07:59.289Z,34.94
2023-04-02T19:10:30.104Z,35.13
2023-04-02T19:12:58.014Z,35.00
2023-04-02T19:15:29.516Z,35.00
2023-04-02T19:18:00.067Z,35.25
2023-04-02T19:20:32.139Z,35.36
2023-04-02T19:23:07.857Z,35.30
2023-04-02T19:25:44.833Z,35.08
2023-04-02T19:28:14.259Z,35.24
2023-04-02T19:30:57.907Z,35.55
2023-04-02T19:33:32.418Z,35.43
2023-04-02T19:36:00.907Z,35.62
2023-04-02T19:38:41.877Z,35.64
2023-04-02T19:41:11.345Z,35.77
2023-04-02T19:43:39.214Z,35.53
2023-04-02T19:46:07.119Z,35.89
2023-04-02T19:48:39.598Z,35.65
2023-04-02T19:51:07.774Z,35.33
2023-04-02T19:53:37.057Z,35.86
2023-04-02T19:56:05.155Z,35.90
2023-04-02T19:58:33.705Z,35.65
2023-04-02T20:01:01.969Z,35.86
2023-04-02T20:03:30.222Z,35.81
2023-04-02T20:05:59.619Z,35.84
2023-04-02T20:08:27.744Z,35.97
2023-04-02T20:10:58.631Z,36.03
2023-04-02T20:13:26.615Z,35.93
2023-04-02T20:15:54.760Z,35.91
2023-04-02T20:18:22.705Z,35.96
2023-04-02T20:20:50.965Z,36.13
2023-04-02T20:23:20.127Z,35.95
2023-04-02T20:25:48.206Z,36.02
2023-04-02T20:28:17.516Z,36.03
2023-04-02T20:30:46.375Z,36.04
2023-04-02T20:33:14.403Z,36.08
2023-04-02T20:35:42.409Z,35.87
2023-04-02T20:38:11.710Z,35.94
2023-04-02T20:40:40.348Z,36.09
2023-04-02T20:43:08.727Z,36.04
2023-04-02T20:45:38.096Z,36.13
2023-04-02T20:48:06.353Z,36.07
2023-04-02T20:50:35.038Z,36.14
2023-04-02T20:53:03.172Z,36.09
2023-04-02T20:55:31.517Z,36.09
2023-04-02T20:57:59.414Z,36.34
2023-04-02T21:00:27.343Z,36.15
2023-04-02T21:02:57.766Z,36.09
2023-04-02T21:05:25.812Z,36.47
2023-04-02T21:07:53.692Z,36.27
2023-04-02T21:10:21.696Z,36.12
2023-04-02T21:12:50.061Z,36.71
2023-04-02T21:15:18.028Z,36.36
2023-04-02T21:17:46.032Z,36.36
2023-04-02T21:20:15.506Z,36.21
2023-04-02T21:22:43.722Z,36.49
2023-04-02T21:25:11.603Z,36.45
2023-04-02T21:27:39.585Z,36.65
2023-04-02T21:30:10.621Z,36.47
2023-04-02T21:32:38.847Z,36.37
2023-04-02T21:35:08.832Z,36.56
2023-04-02T21:37:38.192Z,36.48
2023-04-02T21:40:07.305Z,36.49
2023-04-02T21:42:36.512Z,36.63
2023-04-02T21:45:04.614Z,36.54
2023-04-02T21:47:32.555Z,36.50
2023-04-02T21:50:00.496Z,36.41
2023-04-02T21:52:28.717Z,36.41
2023-04-02T21:54:58.052Z,36.58
2023-04-02T21:57:26.094Z,36.31
2023-04-02T21:59:56.895Z,36.36
2023-04-02T22:02:25.307Z,36.52
2023-04-02T22:04:53.344Z,36.63
2023-04-02T22:07:21.297Z,36.51
2023-04-02T22:09:49.204Z,36.68
2023-04-02T22:12:18.785Z,36.41
2023-04-02T22:14:47.064Z,36.71
2023-04-02T22:17:14.986Z,36.46
2023-04-02T22:19:42.883Z,36.42
2023-04-02T22:22:11.112Z,36.37
2023-04-02T22:24:39.040Z,36.14
2023-04-02T22:27:06.939Z,36.47
2023-04-02T22:29:36.278Z,36.21
2023-04-02T22:32:04.494Z,36.52
2023-04-02T22:34:32.983Z,36.73
2023-04-02T22:37:00.906Z,36.22
2023-04-02T22:39:28.859Z,36.48
2023-04-02T22:41:57.092Z,36.54
2023-04-02T22:44:24.996Z,36.42
2023-04-02T22:46:54.366Z,36.23
2023-04-02T22:49:22.283Z,36.73
2023-04-02T22:51:50.506Z,36.49
2023-04-02T22:54:18.446Z,36.53
2023-04-02T22:56:46.394Z,36.60
2023-04-02T22:59:14.724Z,36.71
2023-04-02T23:01:42.950Z,36.68
2023-04-02T23:04:12.273Z,36.32
2023-04-02T23:06:40.345Z,36.54
2023-04-02T23:09:08.476Z,36.56
2023-04-02T23:11:36.820Z,36.37
2023-04-02T23:14:04.728Z,36.37
2023-04-02T23:16:32.726Z,36.63
2023-04-02T23:19:00.726Z,36.38
2023-04-02T23:21:30.356Z,36.54
2023-04-02T23:23:58.276Z,36.34
2023-04-02T23:26:29.120Z,36.35
2023-04-02T23:28:57.659Z,36.63
2023-04-02T23:31:25.944Z,36.70
2023-04-02T23:33:53.884Z,36.56
2023-04-02T23:36:22.896Z,36.25
2023-04-02T23:38:55.262Z,36.54
2023-04-02T23:41:23.970Z,36.63
2023-04-02T23:43:51.998Z,36.64
2023-04-02T23:46:19.996Z,36.25
2023-04-02T23:48:47.901Z,36.54
2023-04-02T23:51:16.142Z,36.16
2023-04-02T23:53:44.324Z,36.43
2023-04-02T23:56:13.672Z,36.32
2023-04-02T23:58:41.577Z,36.66
